Time;durP1;ratioP1;P1;durP2;ratioP2;P2;SDS_P1;SDS_P2;PMS_P1;PMS_P2;Temp;Humidity;BMP_temperature;BMP_pressure;BME280_temperature;BME280_humidity;BME280_pressure;Samples;Min_cycle;Max_cycle;Signal;HPM_P1;HPM_P2
2022/01/06 00:01:33;;;;;;;7.00;3.00;;;;;;;-0.94;80.27;97213.00;5034374;28;20493;-60
2022/01/06 00:04:00;;;;;;;4.90;3.03;;;;;;;-0.84;80.67;97231.81;5033392;28;20077;-60
2022/01/06 00:06:29;;;;;;;7.18;3.38;;;;;;;-0.81;80.82;97234.72;5034373;28;20060;-59
2022/01/06 00:08:57;;;;;;;4.97;2.83;;;;;;;-0.80;80.76;97241.78;5025672;28;20045;-60
2022/01/06 00:11:24;;;;;;;7.97;3.67;;;;;;;-0.79;80.92;97231.66;5013169;28;20050;-60
2022/01/06 00:24:19;;;;;;;6.65;2.78;;;;;;;-0.74;81.30;97245.19;5030029;28;20049;-60
2022/01/06 00:26:48;;;;;;;5.88;2.95;;;;;;;-0.74;81.63;97242.47;5032994;28;20049;-60
2022/01/06 00:29:16;;;;;;;6.28;2.92;;;;;;;-0.73;81.24;97241.31;5033570;28;20055;-60
2022/01/06 00:31:44;;;;;;;7.43;3.88;;;;;;;-0.72;81.35;97240.19;5033910;28;20148;-62
2022/01/06 00:34:11;;;;;;;8.70;2.95;;;;;;;-0.71;81.21;97242.59;5024155;28;20049;-61
2022/01/06 00:36:40;;;;;;;8.38;3.55;;;;;;;-0.70;81.59;97243.41;5033467;28;20053;-61
2022/01/06 00:39:08;;;;;;;6.68;3.85;;;;;;;-0.69;81.70;97245.84;5032927;28;20519;-61
2022/01/06 00:41:36;;;;;;;7.68;3.65;;;;;;;-0.68;81.57;97252.09;5033440;28;20049;-63
2022/01/06 00:44:05;;;;;;;8.98;2.92;;;;;;;-0.70;81.84;97244.22;5033446;28;20053;-62
2022/01/06 00:46:33;;;;;;;6.65;3.72;;;;;;;-0.66;81.58;97247.94;5033625;28;20049;-62
2022/01/06 00:49:00;;;;;;;6.60;3.10;;;;;;;-0.65;81.50;97246.00;5032864;28;20054;-62
2022/01/06 00:51:27;;;;;;;9.40;3.22;;;;;;;-0.64;82.20;97253.06;5032983;28;20061;-62
2022/01/06 00:53:54;;;;;;;6.45;3.40;;;;;;;-0.64;82.08;97250.34;5032679;28;20132;-61
2022/01/06 00:56:21;;;;;;;6.40;2.72;;;;;;;-0.62;81.64;97254.34;5033201;28;20539;-62
2022/01/06 00:58:48;;;;;;;6.75;3.17;;;;;;;-0.62;81.66;97256.31;5032557;28;20045;-62
2022/01/06 01:01:15;;;;;;;7.20;3.38;;;;;;;-0.61;81.95;97257.91;5033145;28;20041;-62
2022/01/06 01:03:43;;;;;;;7.68;3.15;;;;;;;-0.61;82.15;97257.91;5032262;28;20087;-61
2022/01/06 01:06:10;;;;;;;7.15;3.42;;;;;;;-0.59;81.78;97261.13;5029561;28;20049;-59
2022/01/06 01:08:38;;;;;;;5.88;2.88;;;;;;;-0.60;82.19;97249.41;5032241;28;20509;-60
2022/01/06 01:11:06;;;;;;;9.30;3.38;;;;;;;-0.57;82.02;97253.41;5032931;28;20059;-59
2022/01/06 01:13:37;;;;;;;6.13;3.40;;;;;;;-0.56;82.08;97260.50;5032805;28;20141;-63
2022/01/06 01:16:20;;;;;;;5.57;2.83;;;;;;;-0.52;81.88;97251.34;5031932;28;20057;-62
2022/01/06 01:18:49;;;;;;;5.15;2.42;;;;;;;-0.54;82.19;97263.69;5031089;28;20081;-63
2022/01/06 01:21:22;;;;;;;9.00;3.10;;;;;;;-0.51;82.01;97263.06;5024358;28;20087;-62
2022/01/06 01:23:49;;;;;;;4.65;2.60;;;;;;;-0.55;81.95;97256.63;5032034;28;20073;-62
2022/01/06 01:26:16;;;;;;;5.18;2.88;;;;;;;-0.54;82.03;97253.59;5032427;28;20136;-60
2022/01/06 01:28:45;;;;;;;7.88;3.10;;;;;;;-0.49;82.00;97266.28;5032167;28;20100;-61
2022/01/06 01:33:46;;;;;;;7.47;3.83;;;;;;;-0.49;81.68;97255.38;5029313;28;20493;-61
2022/01/06 01:36:13;;;;;;;5.90;2.90;;;;;;;-0.48;82.08;97256.97;5028414;28;20053;-60
2022/01/06 01:38:40;;;;;;;4.90;2.45;;;;;;;-0.49;81.90;97255.38;5030364;28;20053;-60
2022/01/06 01:41:09;;;;;;;5.35;2.70;;;;;;;-0.46;82.02;97260.19;5032141;28;20588;-59
2022/01/06 01:43:37;;;;;;;14.55;3.17;;;;;;;-0.45;81.72;97253.59;5032603;28;20041;-60
2022/01/06 01:46:11;;;;;;;5.82;3.00;;;;;;;-0.45;81.60;97256.34;5031650;28;20140;-61
2022/01/06 01:48:42;;;;;;;4.72;2.53;;;;;;;-0.44;81.81;97257.97;5032470;28;20060;-60
2022/01/06 01:51:09;;;;;;;5.75;2.95;;;;;;;-0.45;81.58;97250.88;5031884;28;20049;-61
2022/01/06 01:53:37;;;;;;;5.32;2.60;;;;;;;-0.41;81.71;97257.31;5032434;28;20046;-61
2022/01/06 01:56:08;;;;;;;4.80;2.28;;;;;;;-0.40;81.63;97258.94;5030435;28;20053;-60
2022/01/06 01:58:36;;;;;;;5.35;2.65;;;;;;;-0.39;81.76;97255.06;5032473;28;20136;-60
2022/01/06 02:01:04;;;;;;;7.22;2.53;;;;;;;-0.39;81.58;97255.06;5030929;28;20057;-60
2022/01/06 02:03:31;;;;;;;6.22;3.17;;;;;;;-0.38;82.03;97259.41;5032283;28;20045;-61
2022/01/06 02:05:58;;;;;;;5.88;3.03;;;;;;;-0.38;81.93;97257.47;5031244;28;20049;-60
2022/01/06 02:08:25;;;;;;;6.60;3.05;;;;;;;-0.40;81.70;97256.19;5030379;28;20057;-60
2022/01/06 02:10:52;;;;;;;4.82;2.75;;;;;;;-0.36;81.97;97257.16;5031151;28;20049;-59
2022/01/06 02:13:23;;;;;;;4.20;2.00;;;;;;;-0.39;82.07;97247.69;5030752;28;20056;-60
2022/01/06 02:15:50;;;;;;;4.35;2.15;;;;;;;-0.34;81.59;97254.91;5031469;28;20147;-60
2022/01/06 02:18:17;;;;;;;5.53;2.63;;;;;;;-0.32;81.64;97255.41;5031973;28;20054;-60
2022/01/06 02:20:44;;;;;;;4.47;2.65;;;;;;;-0.34;81.66;97258.47;5023206;28;21440;-60
2022/01/06 02:23:11;;;;;;;5.15;2.22;;;;;;;-0.33;81.52;97257.34;5031805;28;20045;-60
2022/01/06 02:25:38;;;;;;;7.40;2.17;;;;;;;-0.33;81.75;97251.88;5030941;28;20053;-61
2022/01/06 02:28:05;;;;;;;6.05;2.15;;;;;;;-0.32;81.97;97258.16;5032704;28;20115;-60
2022/01/06 02:30:35;;;;;;;81.15;22.17;;;;;;;-0.32;81.98;97255.41;5031332;28;20050;-59
2022/01/06 02:33:04;;;;;;;7.90;4.07;;;;;;;-0.33;81.92;97261.97;5026991;28;20068;-60
2022/01/06 02:35:31;;;;;;;5.45;2.45;;;;;;;-0.33;82.01;97264.72;5031344;28;20394;-60
2022/01/06 02:37:58;;;;;;;5.97;2.78;;;;;;;-0.33;81.51;97273.72;5031650;28;20048;-60
2022/01/06 02:40:26;;;;;;;5.78;2.60;;;;;;;-0.31;81.61;97268.75;5031328;28;20045;-58
2022/01/06 02:42:56;;;;;;;5.78;2.45;;;;;;;-0.26;81.83;97284.97;5031643;28;20124;-59
2022/01/06 02:45:26;;;;;;;4.07;2.00;;;;;;;-0.27;81.30;97283.38;5031943;28;20053;-60
2022/01/06 02:47:54;;;;;;;8.48;3.33;;;;;;;-0.26;81.83;97281.47;5031182;28;20049;-59
2022/01/06 02:50:22;;;;;;;10.93;2.63;;;;;;;-0.25;81.43;97277.59;5031502;28;20045;-59
2022/01/06 02:52:49;;;;;;;10.75;2.83;;;;;;;-0.22;81.38;97282.41;5030596;28;20065;-58
2022/01/06 02:55:17;;;;;;;5.78;2.35;;;;;;;-0.21;81.85;97276.63;5027949;28;20053;-60
2022/01/06 02:57:45;;;;;;;5.63;2.80;;;;;;;-0.22;81.52;97276.97;5031768;28;20766;-59
2022/01/06 03:00:14;;;;;;;6.03;3.13;;;;;;;-0.20;81.49;97280.19;5030375;28;20057;-58
2022/01/06 03:02:42;;;;;;;6.22;2.40;;;;;;;-0.19;81.27;97292.72;5030920;28;20516;-57
2022/01/06 03:05:10;;;;;;;4.65;2.67;;;;;;;-0.18;81.34;97286.13;5031512;28;20128;-59
2022/01/06 03:07:37;;;;;;;5.38;2.72;;;;;;;-0.19;81.12;97281.78;5013202;28;20053;-59
2022/01/06 03:10:08;;;;;;;5.28;2.50;;;;;;;-0.21;81.10;97284.84;5031639;28;20052;-58
2022/01/06 03:12:40;;;;;;;;;;;;;;;-0.23;81.26;97286.28;5032784;28;20045;-59
2022/01/06 03:15:16;;;;;;;6.78;2.05;;;;;;;-0.21;81.73;97290.28;5035265;28;20002;-58
2022/01/06 03:17:46;;;;;;;4.68;2.75;;;;;;;-0.19;81.35;97292.72;5034450;28;20099;-58
2022/01/06 03:20:14;;;;;;;4.32;1.90;;;;;;;-0.22;81.06;97287.88;5035658;28;20488;-56
2022/01/06 03:22:41;;;;;;;3.80;1.55;;;;;;;-0.20;81.19;97291.13;5033146;28;20077;-59
2022/01/06 03:25:10;;;;;;;3.65;1.95;;;;;;;-0.17;80.93;97295.94;5034856;28;20484;-58
2022/01/06 03:27:38;;;;;;;2.83;1.63;;;;;;;-0.18;81.18;97294.31;5034362;28;20507;-58
2022/01/06 03:30:08;;;;;;;4.25;2.25;;;;;;;-0.17;80.92;97291.25;5034817;28;20049;-58
2022/01/06 03:32:35;;;;;;;3.75;2.00;;;;;;;-0.16;81.19;97292.06;5033854;28;20049;-59
2022/01/06 03:35:03;;;;;;;3.80;1.83;;;;;;;-0.12;80.80;97301.22;5034749;28;20045;-59
2022/01/06 03:37:30;;;;;;;3.53;2.00;;;;;;;-0.15;80.74;97299.13;5033985;28;20057;-58
2022/01/06 03:39:57;;;;;;;4.80;1.90;;;;;;;-0.21;80.74;97303.97;5034331;28;20060;-58
2022/01/06 03:42:24;;;;;;;4.82;1.50;;;;;;;-0.27;80.87;97301.69;5034032;28;20050;-58
2022/01/06 03:44:51;;;;;;;5.13;1.63;;;;;;;-0.32;81.36;97293.66;5030877;28;20382;-58
2022/01/06 03:47:17;;;;;;;2.15;1.20;;;;;;;-0.39;80.92;97298.75;5034107;28;20053;-58
2022/01/06 03:49:44;;;;;;;1.63;1.00;;;;;;;-0.47;81.15;97292.16;5034018;28;20096;-58
2022/01/06 03:52:11;;;;;;;2.63;1.25;;;;;;;-0.46;81.38;97299.25;5033974;28;20517;-57
2022/01/06 03:54:38;;;;;;;2.67;1.30;;;;;;;-0.46;80.96;97292.97;5033029;28;20052;-58
2022/01/06 03:57:06;;;;;;;4.45;1.23;;;;;;;-0.45;81.08;97298.09;5027078;28;20136;-58
2022/01/06 03:59:34;;;;;;;2.55;1.17;;;;;;;-0.45;81.07;97305.47;5033763;28;20046;-58
2022/01/06 04:02:01;;;;;;;4.95;1.20;;;;;;;-0.46;80.93;97292.97;5032550;28;20049;-58
2022/01/06 04:04:28;;;;;;;3.67;1.42;;;;;;;-0.46;80.44;97298.41;5033922;28;20123;-58
2022/01/06 04:06:56;;;;;;;3.88;1.35;;;;;;;-0.46;80.67;97299.25;5034241;28;20515;-55
2022/01/06 04:09:23;;;;;;;3.35;1.10;;;;;;;-0.44;80.67;97299.69;5025563;28;20069;-57
2022/01/06 04:11:49;;;;;;;4.63;1.30;;;;;;;-0.45;80.27;97303.56;5033635;28;20049;-57
2022/01/06 04:14:16;;;;;;;1.75;1.05;;;;;;;-0.44;80.36;97307.13;5033480;28;21032;-58
2022/01/06 04:16:43;;;;;;;4.10;1.40;;;;;;;-0.44;80.52;97301.66;5033839;28;20056;-61
2022/01/06 04:19:10;;;;;;;3.63;1.23;;;;;;;-0.45;79.95;97302.75;5033146;28;20083;-60
2022/01/06 04:21:37;;;;;;;2.97;1.40;;;;;;;-0.50;80.27;97302.91;5025374;28;20412;-61
2022/01/06 04:24:04;;;;;;;5.50;1.10;;;;;;;-0.54;80.47;97307.38;5032962;28;20049;-60
2022/01/06 04:26:31;;;;;;;3.25;1.33;;;;;;;-0.52;80.41;97316.06;5033577;28;20046;-60
2022/01/06 04:28:58;;;;;;;9.00;1.45;;;;;;;-0.50;80.52;97313.84;5033804;28;20059;-61
2022/01/06 04:31:25;;;;;;;2.42;1.15;;;;;;;-0.52;80.09;97305.97;5031618;28;20059;-61
2022/01/06 04:33:52;;;;;;;3.22;1.20;;;;;;;-0.52;79.91;97299.69;5032459;28;20382;-60
2022/01/06 04:36:20;;;;;;;4.97;1.17;;;;;;;-0.52;79.88;97307.88;5032902;28;20516;-61
2022/01/06 04:38:47;;;;;;;5.47;1.35;;;;;;;-0.54;79.88;97299.19;5033554;28;20274;-61
2022/01/06 04:41:14;;;;;;;3.70;1.10;;;;;;;-0.58;79.91;97299.03;5032693;28;20064;-61
2022/01/06 04:43:41;;;;;;;6.90;1.58;;;;;;;-0.52;79.63;97305.16;5033401;28;20052;-61
2022/01/06 04:46:08;;;;;;;2.38;1.08;;;;;;;-0.54;79.55;97296.47;5032874;28;20445;-61
2022/01/06 04:48:37;;;;;;;8.75;1.45;;;;;;;-0.55;79.71;97305.78;5034068;28;20088;-61
2022/01/06 04:51:05;;;;;;;3.15;1.27;;;;;;;-0.56;80.20;97304.19;5032838;28;20444;-60
2022/01/06 04:53:31;;;;;;;2.67;1.25;;;;;;;-0.54;79.79;97310.94;5033212;28;20523;-61
2022/01/06 04:55:59;;;;;;;2.60;1.33;;;;;;;-0.53;79.63;97309.00;5032878;28;20060;-61
2022/01/06 04:58:27;;;;;;;2.83;1.10;;;;;;;-0.52;79.78;97305.97;5033169;28;20501;-61
2022/01/06 05:00:54;;;;;;;8.93;1.40;;;;;;;-0.49;79.68;97315.44;5033494;28;20048;-61
2022/01/06 05:03:22;;;;;;;2.78;1.27;;;;;;;-0.47;79.75;97302.28;5029539;28;20546;-61
2022/01/06 05:05:49;;;;;;;2.30;1.05;;;;;;;-0.45;79.44;97310.94;5032645;28;20499;-61
2022/01/06 05:08:15;;;;;;;4.22;1.05;;;;;;;-0.45;79.70;97321.88;5032392;28;20528;-61
2022/01/06 05:10:42;;;;;;;3.13;1.38;;;;;;;-0.46;79.45;97320.25;5032876;28;20136;-61
2022/01/06 05:13:09;;;;;;;3.67;1.30;;;;;;;-0.44;79.46;97318.03;5032144;28;20057;-61
2022/01/06 05:15:36;;;;;;;6.85;1.48;;;;;;;-0.42;79.35;97318.50;5032629;28;20049;-61
2022/01/06 05:18:04;;;;;;;2.30;1.00;;;;;;;-0.45;79.73;97332.78;5032396;28;20104;-61
2022/01/06 05:20:31;;;;;;;6.32;1.42;;;;;;;-0.50;79.66;97324.75;5032531;28;20131;-61
2022/01/06 05:22:58;;;;;;;4.53;1.77;;;;;;;-0.52;79.60;97322.34;5032227;28;20068;-61
2022/01/06 05:25:27;;;;;;;7.65;1.63;;;;;;;-0.48;80.02;97327.97;5032497;28;20049;-60
2022/01/06 05:27:55;;;;;;;6.70;1.63;;;;;;;-0.44;79.80;97318.03;5032403;28;20056;-61
2022/01/06 05:30:22;;;;;;;5.05;1.40;;;;;;;-0.41;79.85;97331.06;5032848;28;20560;-62
2022/01/06 05:32:49;;;;;;;5.43;1.48;;;;;;;-0.39;79.56;97326.06;5030031;28;20037;-62
2022/01/06 05:35:17;;;;;;;5.60;1.52;;;;;;;-0.42;79.61;97326.69;5032103;28;20048;-61
2022/01/06 05:37:44;;;;;;;3.13;1.65;;;;;;;-0.42;79.68;97322.03;5032095;28;20092;-60
2022/01/06 05:40:12;;;;;;;6.80;1.85;;;;;;;-0.41;79.63;97329.13;5032258;28;20050;-61
2022/01/06 05:42:40;;;;;;;15.65;2.67;;;;;;;-0.38;79.42;97322.22;5031811;28;20053;-62
2022/01/06 05:45:08;;;;;;;9.93;2.33;;;;;;;-0.36;79.77;97322.69;5028619;28;20505;-60
2022/01/06 05:47:35;;;;;;;5.53;2.10;;;;;;;-0.35;79.77;97327.06;5030334;28;20061;-61
2022/01/06 05:50:04;;;;;;;5.55;2.08;;;;;;;-0.34;79.49;97321.28;5030613;28;20073;-61
2022/01/06 05:52:31;;;;;;;5.63;1.98;;;;;;;-0.31;79.26;97322.56;5031739;28;20065;-61
2022/01/06 05:54:59;;;;;;;7.35;2.05;;;;;;;-0.29;79.49;97326.56;5030828;28;20518;-61
2022/01/06 05:57:26;;;;;;;5.28;2.58;;;;;;;-0.29;79.61;97331.25;5032130;28;20500;-62
2022/01/06 05:59:53;;;;;;;8.10;2.40;;;;;;;-0.30;79.94;97324.16;5031566;28;20053;-62
2022/01/06 06:02:20;;;;;;;7.63;2.50;;;;;;;-0.27;79.71;97327.06;5031797;28;20107;-61
2022/01/06 06:04:47;;;;;;;12.88;2.50;;;;;;;-0.27;79.64;97327.06;5031686;28;20052;-61
2022/01/06 06:07:14;;;;;;;6.78;2.45;;;;;;;-0.31;79.99;97328.84;5028264;28;20409;-62
2022/01/06 06:09:41;;;;;;;17.42;2.25;;;;;;;-0.33;79.94;97330.25;5031231;28;20111;-62
2022/01/06 06:12:09;;;;;;;7.03;2.35;;;;;;;-0.30;79.64;97329.63;5031769;28;20045;-61
2022/01/06 06:14:35;;;;;;;16.30;3.03;;;;;;;-0.27;79.71;97331.72;5031487;28;20053;-61
2022/01/06 06:17:03;;;;;;;6.55;2.33;;;;;;;-0.25;79.85;97322.13;5032016;28;20145;-61
2022/01/06 06:19:30;;;;;;;7.70;2.42;;;;;;;-0.26;79.86;97315.03;5031335;28;20049;-61
2022/01/06 06:21:57;;;;;;;5.40;2.30;;;;;;;-0.26;79.69;97323.22;5028737;28;20050;-61
2022/01/06 06:24:24;;;;;;;5.25;2.28;;;;;;;-0.26;79.54;97319.69;5031149;28;20064;-61
2022/01/06 06:26:52;;;;;;;8.63;2.25;;;;;;;-0.24;80.22;97318.25;5031481;28;20136;-62
2022/01/06 06:29:20;;;;;;;6.63;2.47;;;;;;;-0.21;79.62;97314.88;5031884;28;20143;-61
2022/01/06 06:31:47;;;;;;;14.32;3.67;;;;;;;-0.19;79.77;97322.75;5031115;28;20060;-61
2022/01/06 06:34:14;;;;;;;9.77;3.20;;;;;;;-0.15;79.66;97323.72;5028361;28;20048;-60
2022/01/06 06:36:41;;;;;;;14.18;2.53;;;;;;;-0.13;79.53;97314.09;5031024;28;20054;-61
2022/01/06 06:39:08;;;;;;;8.43;2.83;;;;;;;-0.12;79.96;97310.25;5031900;28;20133;-62
2022/01/06 06:41:35;;;;;;;8.35;2.40;;;;;;;-0.11;79.69;97314.56;5031230;28;20417;-61
2022/01/06 06:44:02;;;;;;;4.90;2.55;;;;;;;-0.08;79.20;97299.50;5030084;28;20041;-61
2022/01/06 06:46:30;;;;;;;9.38;2.65;;;;;;;-0.05;79.50;97304.31;5032695;28;20092;-62
2022/01/06 06:48:57;;;;;;;4.15;2.13;;;;;;;-0.04;79.18;97305.91;5035530;28;20444;-62
2022/01/06 06:51:24;;;;;;;5.18;2.25;;;;;;;-0.06;79.38;97308.16;5034755;28;20741;-61
2022/01/06 06:53:51;;;;;;;6.70;2.38;;;;;;;-0.04;79.29;97305.91;5031350;28;20053;-61
2022/01/06 06:56:18;;;;;;;6.60;2.30;;;;;;;0.00;79.19;97301.44;5031190;28;20083;-61
2022/01/06 06:58:45;;;;;;;7.47;2.00;;;;;;;0.03;79.31;97303.53;5035365;28;20116;-60
2022/01/06 07:01:12;;;;;;;7.57;2.70;;;;;;;0.10;79.06;97298.41;5034569;28;20423;-62
2022/01/06 07:03:39;;;;;;;5.65;2.35;;;;;;;0.14;78.90;97304.81;5031574;28;20049;-59
2022/01/06 07:06:06;;;;;;;5.85;2.25;;;;;;;0.19;78.89;97304.66;5035195;28;20060;-60
2022/01/06 07:08:33;;;;;;;4.43;2.00;;;;;;;0.20;78.98;97300.81;5026280;28;20534;-60
2022/01/06 07:11:00;;;;;;;7.72;2.55;;;;;;;0.17;78.69;97295.97;5035163;28;20045;-61
2022/01/06 07:13:26;;;;;;;4.50;2.20;;;;;;;0.19;78.85;97293.75;5034667;28;20053;-61
2022/01/06 07:15:53;;;;;;;6.75;2.13;;;;;;;0.18;79.11;97305.00;5034965;28;20449;-61
2022/01/06 07:18:20;;;;;;;11.85;3.65;;;;;;;0.10;79.35;97303.03;5034636;28;20053;-62
2022/01/06 07:20:47;;;;;;;8.55;3.25;;;;;;;0.00;79.50;97301.44;5034647;28;20052;-60
2022/01/06 07:23:14;;;;;;;10.50;3.55;;;;;;;-0.12;79.96;97303.97;5033436;28;20080;-61
2022/01/06 07:25:41;;;;;;;8.50;4.03;;;;;;;-0.05;79.91;97310.56;5034740;28;20137;-61
2022/01/06 07:28:08;;;;;;;8.48;3.70;;;;;;;0.00;79.75;97313.16;5034461;28;20064;-60
2022/01/06 07:30:35;;;;;;;11.02;4.03;;;;;;;0.09;78.91;97307.72;5034704;28;20053;-62
2022/01/06 07:33:02;;;;;;;8.55;3.55;;;;;;;0.15;79.02;97316.56;5028987;28;20424;-62
2022/01/06 07:35:29;;;;;;;7.75;4.30;;;;;;;0.16;78.63;97318.97;5034189;28;20045;-61
2022/01/06 07:37:56;;;;;;;8.68;4.10;;;;;;;0.17;78.82;97317.06;5034248;28;20065;-61
2022/01/06 07:40:23;;;;;;;6.85;3.90;;;;;;;0.18;78.61;97314.00;5034446;28;20056;-61
2022/01/06 07:42:51;;;;;;;7.07;3.30;;;;;;;0.19;78.54;97315.59;5034410;28;20072;-61
2022/01/06 07:45:19;;;;;;;6.55;3.70;;;;;;;0.22;78.68;97309.50;5034804;28;20045;-61
2022/01/06 07:47:57;;;;;;;12.45;4.03;;;;;;;0.19;79.18;97310.13;5034519;28;20049;-61
2022/01/06 07:50:30;;;;;;;8.82;4.20;;;;;;;0.19;78.91;97312.06;5034305;28;20049;-61
2022/01/06 07:52:57;;;;;;;16.17;4.50;;;;;;;0.25;78.57;97308.84;5033608;28;20053;-61
2022/01/06 07:55:25;;;;;;;9.80;3.55;;;;;;;0.23;78.99;97296.66;5034024;28;20571;-61
2022/01/06 07:57:54;;;;;;;10.25;4.00;;;;;;;0.24;78.70;97307.25;5033084;28;20517;-61
2022/01/06 08:00:21;;;;;;;10.80;4.38;;;;;;;0.24;78.72;97307.25;5034029;28;20108;-62
2022/01/06 08:02:48;;;;;;;12.63;4.10;;;;;;;0.28;78.71;97302.75;5034037;28;20049;-61
2022/01/06 08:05:18;;;;;;;9.98;4.55;;;;;;;0.19;78.98;97288.28;5033322;28;20045;-61
2022/01/06 08:07:45;;;;;;;14.98;4.03;;;;;;;0.23;78.77;97291.97;5033698;28;20051;-62
2022/01/06 08:10:12;;;;;;;9.43;4.40;;;;;;;0.25;78.59;97288.91;5033492;28;20049;-61
2022/01/06 08:12:39;;;;;;;9.15;3.95;;;;;;;0.27;78.44;97298.41;5033782;28;20063;-62
2022/01/06 08:15:07;;;;;;;6.85;3.83;;;;;;;0.21;78.80;97291.50;5033540;28;20049;-61
2022/01/06 08:17:36;;;;;;;9.20;4.15;;;;;;;0.23;78.54;97294.69;5033889;28;20057;-64
2022/01/06 08:20:05;;;;;;;9.13;4.45;;;;;;;0.33;78.72;97299.88;5032966;28;20053;-61
2022/01/06 08:22:31;;;;;;;12.35;3.83;;;;;;;0.31;78.29;97284.88;5033502;28;20513;-61
2022/01/06 08:24:58;;;;;;;10.30;4.30;;;;;;;0.35;78.46;97292.13;5033274;28;20709;-61
2022/01/06 08:27:25;;;;;;;12.07;4.68;;;;;;;0.41;78.57;97296.31;5033381;28;20049;-61
2022/01/06 08:29:52;;;;;;;9.27;4.03;;;;;;;0.44;78.08;97289.41;5033165;28;20049;-61
2022/01/06 08:32:20;;;;;;;7.10;4.03;;;;;;;0.47;78.32;97295.03;5032396;28;20111;-62
2022/01/06 08:34:47;;;;;;;9.13;4.22;;;;;;;0.50;78.48;97291.63;5027067;28;20049;-61
2022/01/06 08:37:14;;;;;;;12.27;4.60;;;;;;;0.53;78.33;97282.78;5032994;28;20119;-62
2022/01/06 08:39:41;;;;;;;9.25;4.57;;;;;;;0.56;78.39;97281.34;5033232;28;20054;-61
2022/01/06 08:42:08;;;;;;;8.18;4.30;;;;;;;0.58;78.11;97285.38;5033065;28;20049;-61
2022/01/06 08:44:36;;;;;;;7.50;3.80;;;;;;;0.59;78.45;97289.69;5033383;28;20050;-62
2022/01/06 08:47:03;;;;;;;17.13;4.38;;;;;;;0.60;77.97;97285.03;5033096;28;20049;-61
2022/01/06 08:49:31;;;;;;;9.60;4.40;;;;;;;0.62;78.43;97291.00;5033187;28;20428;-61
2022/01/06 08:51:58;;;;;;;10.02;4.13;;;;;;;0.53;78.49;97291.00;5032389;28;20564;-61
2022/01/06 08:54:25;;;;;;;14.35;4.80;;;;;;;0.51;78.46;97282.31;5032220;28;20057;-61
2022/01/06 08:56:52;;;;;;;10.45;4.30;;;;;;;0.56;78.57;97276.66;5032572;28;20587;-61
2022/01/06 08:59:18;;;;;;;12.52;4.45;;;;;;;0.61;78.18;97281.97;5033142;28;20061;-61
2022/01/06 09:01:45;;;;;;;7.43;3.63;;;;;;;0.63;78.49;97282.47;5032579;28;20057;-62
2022/01/06 09:04:12;;;;;;;10.95;4.60;;;;;;;0.66;78.24;97279.09;5032941;28;20076;-62
2022/01/06 09:06:39;;;;;;;8.65;3.85;;;;;;;0.60;78.06;97282.31;5032599;28;20408;-61
2022/01/06 09:09:06;;;;;;;7.65;3.38;;;;;;;0.50;78.45;97277.97;5024101;28;20061;-61
2022/01/06 09:11:33;;;;;;;12.18;4.32;;;;;;;0.51;78.53;97289.72;5032016;28;20599;-61
2022/01/06 09:14:00;;;;;;;9.10;3.58;;;;;;;0.54;78.92;97284.41;5032772;28;20139;-61
2022/01/06 09:16:27;;;;;;;7.32;3.58;;;;;;;0.54;78.15;97281.69;5032697;28;20056;-61
2022/01/06 09:18:54;;;;;;;15.68;3.95;;;;;;;0.50;78.67;97272.50;5032584;28;20053;-60
2022/01/06 09:21:22;;;;;;;7.45;3.80;;;;;;;0.57;78.60;97281.03;5032419;28;20049;-61
2022/01/06 09:23:51;;;;;;;8.10;3.75;;;;;;;0.63;78.07;97287.13;5032377;28;20088;-60
2022/01/06 09:26:19;;;;;;;16.13;3.67;;;;;;;0.65;78.45;97285.69;5032446;28;20045;-60
2022/01/06 09:28:46;;;;;;;8.73;3.88;;;;;;;0.65;78.16;97274.72;5032220;28;20057;-62
2022/01/06 09:31:13;;;;;;;7.18;4.03;;;;;;;0.66;77.76;97281.84;5032400;28;20525;-60
2022/01/06 09:33:40;;;;;;;13.02;4.32;;;;;;;0.69;77.76;97281.19;5024592;28;20061;-62
2022/01/06 09:36:09;;;;;;;8.77;4.13;;;;;;;0.67;78.17;97269.75;5032334;28;20049;-61
2022/01/06 09:38:36;;;;;;;12.15;4.30;;;;;;;0.68;77.96;97279.56;5032770;28;20054;-62
2022/01/06 09:41:05;;;;;;;7.32;3.58;;;;;;;0.69;78.29;97277.63;5030822;28;20467;-62
2022/01/06 09:43:34;;;;;;;9.70;3.85;;;;;;;0.67;77.65;97283.44;5032199;28;20049;-61
2022/01/06 09:46:09;;;;;;;9.85;3.50;;;;;;;0.74;77.78;97281.00;5032112;28;20087;-62
2022/01/06 09:48:38;;;;;;;6.22;3.28;;;;;;;0.81;77.29;97283.25;5032163;28;20050;-61
2022/01/06 09:51:05;;;;;;;8.15;3.72;;;;;;;0.86;77.25;97274.88;5031846;28;20054;-61
2022/01/06 09:53:32;;;;;;;6.90;3.70;;;;;;;0.87;77.08;97276.47;5031365;28;20057;-63
2022/01/06 09:55:59;;;;;;;9.02;3.78;;;;;;;0.88;77.06;97273.41;5031571;28;20524;-62
2022/01/06 09:58:28;;;;;;;7.95;3.72;;;;;;;0.94;77.18;97268.56;5031860;28;20052;-59
2022/01/06 10:00:56;;;;;;;8.50;3.58;;;;;;;0.96;77.17;97258.91;5031923;28;20065;-60
2022/01/06 10:03:37;;;;;;;6.30;3.60;;;;;;;1.02;76.93;97267.75;5031695;28;20041;-58
2022/01/06 10:06:12;;;;;;;8.00;3.60;;;;;;;0.99;76.84;97274.69;5030715;28;20049;-61
2022/01/06 10:08:40;;;;;;;5.70;3.08;;;;;;;0.99;76.64;97269.22;5031561;28;20052;-59
2022/01/06 10:11:16;;;;;;;15.05;3.50;;;;;;;1.03;76.91;97264.69;5031825;28;20501;-62
2022/01/06 10:13:45;;;;;;;7.05;2.70;;;;;;;1.04;76.73;97260.00;5031248;28;20071;-61
2022/01/06 10:16:14;;;;;;;8.50;3.20;;;;;;;1.06;76.69;97269.50;5031878;28;20049;-61
2022/01/06 10:18:55;;;;;;;6.47;3.15;;;;;;;1.09;76.60;97259.81;5031340;28;20091;-60
2022/01/06 10:21:23;;;;;;;8.55;3.40;;;;;;;1.05;76.52;97256.94;5033130;28;20452;-61
2022/01/06 10:24:12;;;;;;;4.88;3.25;;;;;;;1.02;76.49;97252.13;5035527;28;20501;-60
2022/01/06 10:27:06;;;;;;;6.22;3.15;;;;;;;1.05;76.48;97262.44;5032056;28;20425;-61
2022/01/06 10:29:55;;;;;;;5.22;2.80;;;;;;;1.07;76.60;97259.38;5034661;28;20052;-62
2022/01/06 10:32:25;;;;;;;8.43;3.22;;;;;;;1.09;76.27;97257.91;5033995;28;20053;-60
2022/01/06 10:34:54;;;;;;;8.88;2.83;;;;;;;1.08;76.66;97269.97;5028939;28;20056;-60
2022/01/06 10:37:26;;;;;;;8.90;3.65;;;;;;;1.08;76.47;97267.25;5034974;28;20062;-62
2022/01/06 10:39:57;;;;;;;9.07;3.63;;;;;;;1.11;76.44;97268.50;5035805;28;20441;-61
2022/01/06 10:42:27;;;;;;;7.93;3.42;;;;;;;1.15;76.62;97264.81;5035081;28;20049;-62
2022/01/06 10:44:58;;;;;;;8.65;3.58;;;;;;;1.14;76.45;97265.94;5035578;28;20049;-61
2022/01/06 10:47:38;;;;;;;8.07;3.70;;;;;;;1.12;76.45;97262.72;5035095;28;20135;-61
2022/01/06 10:50:09;;;;;;;6.60;2.92;;;;;;;1.13;76.78;97264.31;5035003;28;20082;-62
2022/01/06 10:52:39;;;;;;;9.05;3.47;;;;;;;1.16;76.46;97269.13;5035114;28;20067;-61
2022/01/06 10:55:13;;;;;;;13.20;3.03;;;;;;;1.16;76.53;97274.59;5035476;28;20080;-62
2022/01/06 10:58:16;;;;;;;7.32;3.45;;;;;;;1.13;76.02;97260.78;5031387;28;20504;-63
2022/01/06 11:00:55;;;;;;;9.85;2.92;;;;;;;1.12;76.40;97265.44;5028377;28;20451;-62
2022/01/06 11:03:25;;;;;;;9.60;3.20;;;;;;;1.12;76.47;97267.38;5035152;28;20045;-62
2022/01/06 11:05:54;;;;;;;51.70;12.65;;;;;;;1.09;76.50;97266.09;5035091;28;20049;-62
2022/01/06 11:08:26;;;;;;;25.00;5.20;;;;;;;1.05;76.43;97262.44;5031556;28;20140;-62
2022/01/06 11:13:46;;;;;;;11.95;3.45;;;;;;;1.05;76.73;97256.94;5034683;28;20050;-63
2022/01/06 11:16:16;;;;;;;7.03;3.00;;;;;;;1.09;76.18;97257.91;5032358;28;20409;-62
2022/01/06 11:18:54;;;;;;;3.83;2.53;;;;;;;1.03;76.87;97247.44;5034748;28;20049;-62
2022/01/06 11:21:32;;;;;;;9.32;3.28;;;;;;;1.03;76.55;97252.91;5032688;28;20049;-62
2022/01/06 11:24:17;;;;;;;11.50;3.70;;;;;;;1.07;76.58;97254.66;5034453;28;20119;-62
2022/01/06 11:26:56;;;;;;;11.23;3.85;;;;;;;1.09;76.42;97249.69;5034741;28;20041;-61
2022/01/06 11:29:29;;;;;;;10.85;3.40;;;;;;;1.16;76.09;97249.97;5034395;28;20052;-62
2022/01/06 11:31:56;;;;;;;7.82;3.33;;;;;;;1.24;76.12;97248.31;5034174;28;20075;-61
2022/01/06 11:34:23;;;;;;;93.53;28.45;;;;;;;1.28;76.29;97239.16;5030505;28;20141;-62
2022/01/06 11:36:52;;;;;;;48.40;13.45;;;;;;;1.30;76.06;97236.09;5034507;28;20516;-61
2022/01/06 11:39:30;;;;;;;10.10;4.68;;;;;;;1.27;76.51;97237.53;5034102;28;20439;-61
2022/01/06 11:41:58;;;;;;;8.10;3.22;;;;;;;1.28;76.36;97236.41;5034703;28;20053;-62
2022/01/06 11:44:29;;;;;;;7.75;3.30;;;;;;;1.27;76.23;97243.00;5034309;28;20055;-62
2022/01/06 11:46:59;;;;;;;5.30;3.20;;;;;;;1.22;76.05;97251.41;5034196;28;20049;-61
2022/01/06 11:49:42;;;;;;;9.13;3.10;;;;;;;1.22;76.55;97251.41;5034603;28;20136;-62
2022/01/06 11:52:17;;;;;;;13.70;3.45;;;;;;;1.27;76.26;97243.00;5033724;28;20504;-62
2022/01/06 11:54:46;;;;;;;6.10;3.03;;;;;;;1.32;76.29;97250.25;5028176;28;20050;-61
2022/01/06 11:57:14;;;;;;;7.90;3.20;;;;;;;1.35;75.93;97255.06;5034179;28;20060;-61
2022/01/06 11:59:45;;;;;;;7.15;3.38;;;;;;;1.30;75.87;97263.47;5033980;28;20512;-62